createdAt,value
2019-04-26T00:01:11.552Z,14.40
2019-04-26T00:03:45.228Z,14.47
2019-04-26T00:06:16.718Z,14.33
2019-04-26T00:08:55.049Z,14.60
2019-04-26T00:11:51.159Z,13.77
2019-04-26T00:14:59.959Z,14.17
2019-04-26T00:17:34.725Z,13.13
2019-04-26T00:20:06.743Z,13.80
2019-04-26T00:22:37.361Z,14.83
2019-04-26T00:25:08.209Z,14.63
2019-04-26T00:27:38.903Z,14.10
2019-04-26T00:30:10.690Z,13.93
2019-04-26T00:32:43.121Z,14.43
2019-04-26T00:35:14.033Z,15.43
2019-04-26T00:37:44.561Z,14.57
2019-04-26T00:40:16.222Z,14.07
2019-04-26T00:42:47.517Z,13.73
2019-04-26T00:45:18.809Z,14.20
2019-04-26T00:47:51.190Z,14.30
2019-04-26T00:50:23.240Z,13.73
2019-04-26T00:52:54.379Z,13.77
2019-04-26T00:55:25.348Z,15.20
2019-04-26T00:57:56.312Z,17.20
2019-04-26T01:00:26.788Z,15.30
2019-04-26T01:02:58.347Z,15.47
2019-04-26T01:05:30.879Z,15.53
2019-04-26T01:08:01.558Z,14.30
2019-04-26T01:10:32.172Z,14.07
2019-04-26T01:13:02.790Z,14.53
2019-04-26T01:15:33.253Z,14.07
2019-04-26T01:18:04.189Z,13.90
2019-04-26T01:20:36.613Z,14.33
2019-04-26T01:23:09.023Z,14.23
2019-04-26T01:25:44.311Z,14.47
2019-04-26T01:28:21.387Z,14.40
2019-04-26T01:30:52.911Z,14.53
2019-04-26T01:33:24.405Z,13.83
2019-04-26T01:35:55.865Z,13.63
2019-04-26T01:38:27.686Z,15.10
2019-04-26T01:41:01.671Z,14.40
2019-04-26T01:43:44.473Z,15.13
2019-04-26T01:46:22.072Z,14.37
2019-04-26T01:49:00.570Z,14.93
2019-04-26T01:52:02.186Z,14.37
2019-04-26T01:54:38.268Z,14.37
2019-04-26T01:57:09.421Z,14.30
2019-04-26T01:59:44.421Z,13.90
2019-04-26T02:02:37.201Z,13.10
2019-04-26T02:05:13.423Z,13.63
2019-04-26T02:07:44.500Z,14.23
2019-04-26T02:10:21.107Z,14.23
2019-04-26T02:12:54.576Z,13.30
2019-04-26T02:15:29.207Z,13.67
2019-04-26T02:18:01.139Z,13.70
2019-04-26T02:21:31.891Z,14.17
2019-04-26T02:24:26.414Z,14.40
2019-04-26T02:26:58.088Z,13.90
2019-04-26T02:29:29.095Z,13.63
2019-04-26T02:32:04.264Z,13.57
2019-04-26T02:34:38.039Z,13.53
2019-04-26T02:37:11.515Z,13.50
2019-04-26T02:39:43.579Z,14.03
2019-04-26T02:42:34.424Z,13.87
2019-04-26T02:45:36.793Z,13.93
2019-04-26T02:48:37.545Z,14.23
2019-04-26T02:51:13.577Z,14.00
2019-04-26T02:54:01.883Z,14.47
2019-04-26T02:56:43.855Z,14.73
2019-04-26T02:59:44.233Z,15.50
2019-04-26T03:02:25.943Z,15.77
2019-04-26T03:05:03.777Z,16.23
2019-04-26T03:08:04.392Z,15.97
2019-04-26T03:10:40.329Z,16.57
2019-04-26T03:13:22.374Z,15.97
2019-04-26T03:16:14.144Z,16.43
2019-04-26T03:18:55.560Z,16.90
2019-04-26T03:21:37.815Z,16.30
2019-04-26T03:24:21.334Z,16.17
2019-04-26T03:27:10.860Z,15.43
2019-04-26T03:30:18.223Z,16.07
2019-04-26T03:33:08.149Z,15.73
2019-04-26T03:36:19.200Z,15.20
2019-04-26T03:39:08.781Z,15.30
2019-04-26T03:42:18.940Z,16.00
2019-04-26T03:45:17.094Z,15.83
2019-04-26T03:48:27.514Z,15.93
2019-04-26T03:51:08.751Z,15.90
2019-04-26T03:53:56.825Z,16.67
2019-04-26T03:57:13.570Z,15.97
2019-04-26T04:00:14.949Z,16.07
2019-04-26T04:02:59.465Z,15.80
2019-04-26T04:05:40.122Z,15.77
2019-04-26T04:08:16.088Z,16.13
2019-04-26T04:10:54.747Z,16.67
2019-04-26T04:13:49.149Z,17.27
2019-04-26T04:16:39.186Z,18.53
2019-04-26T04:19:31.072Z,16.97
2019-04-26T04:22:06.689Z,17.33
2019-04-26T04:24:50.885Z,17.07
2019-04-26T04:27:49.260Z,17.67
2019-04-26T04:30:47.702Z,16.60
2019-04-26T04:33:37.596Z,16.23
2019-04-26T04:36:30.715Z,16.10
2019-04-26T04:39:12.220Z,16.27
2019-04-26T04:41:56.991Z,16.57
2019-04-26T04:45:28.897Z,16.30
2019-04-26T04:48:36.360Z,16.73
2019-04-26T04:51:40.872Z,17.67
2019-04-26T04:54:18.424Z,17.00
2019-04-26T04:57:38.128Z,16.13
2019-04-26T05:00:57.851Z,15.23
2019-04-26T05:03:53.091Z,16.13
2019-04-26T05:06:45.016Z,18.83
2019-04-26T05:09:23.661Z,16.57
2019-04-26T05:12:15.923Z,16.60
2019-04-26T05:15:18.979Z,16.37
2019-04-26T05:18:42.715Z,16.00
2019-04-26T05:21:29.984Z,15.40
2019-04-26T05:24:47.224Z,15.83
2019-04-26T05:27:59.986Z,16.40
2019-04-26T05:31:10.499Z,16.70
2019-04-26T05:34:23.407Z,15.80
2019-04-26T05:37:18.386Z,14.90
2019-04-26T05:40:49.672Z,13.73
2019-04-26T05:43:50.227Z,14.17
2019-04-26T05:47:19.324Z,14.80
2019-04-26T05:51:03.256Z,14.07
2019-04-26T05:54:13.133Z,14.20
2019-04-26T05:57:24.047Z,14.47
2019-04-26T06:00:45.647Z,14.30
2019-04-26T06:04:40.200Z,14.53
2019-04-26T06:07:31.720Z,13.60
2019-04-26T06:10:29.436Z,13.37
2019-04-26T06:13:35.042Z,13.53
2019-04-26T06:16:36.854Z,13.40
2019-04-26T06:19:24.692Z,13.87
2019-04-26T06:22:20.526Z,13.83
2019-04-26T06:25:35.792Z,13.97
2019-04-26T06:28:24.190Z,14.17
2019-04-26T06:31:03.467Z,13.67
2019-04-26T06:33:40.415Z,14.03
2019-04-26T06:36:18.168Z,13.67
2019-04-26T06:39:22.007Z,13.63
2019-04-26T06:42:31.241Z,13.87
2019-04-26T06:45:51.630Z,15.00
2019-04-26T06:48:40.431Z,13.33
2019-04-26T06:51:24.092Z,13.67
2019-04-26T06:54:21.127Z,13.27
2019-04-26T06:57:59.969Z,13.67
2019-04-26T07:01:08.045Z,12.80
2019-04-26T07:04:35.931Z,14.17
2019-04-26T07:07:28.170Z,14.40
2019-04-26T07:10:12.801Z,13.23
2019-04-26T07:12:56.548Z,13.60
2019-04-26T07:16:22.007Z,12.13
2019-04-26T07:19:05.928Z,12.23
2019-04-26T07:22:42.936Z,12.60
2019-04-26T07:26:01.716Z,12.83
2019-04-26T07:29:26.500Z,12.40
2019-04-26T07:32:05.305Z,12.53
2019-04-26T07:34:53.399Z,11.40
2019-04-26T07:37:41.948Z,10.87
2019-04-26T07:40:49.532Z,11.47
2019-04-26T07:43:51.102Z,11.77
2019-04-26T07:47:04.150Z,11.10
2019-04-26T07:50:11.518Z,10.77
2019-04-26T07:53:27.034Z,12.27
2019-04-26T07:56:26.644Z,11.70
2019-04-26T07:59:43.514Z,12.13
2019-04-26T08:02:37.885Z,9.33
2019-04-26T08:05:40.337Z,10.17
2019-04-26T08:08:13.587Z,10.10
2019-04-26T08:11:04.394Z,10.73
2019-04-26T08:13:38.541Z,10.83
2019-04-26T08:16:29.867Z,9.73
2019-04-26T08:19:06.992Z,10.67
2019-04-26T08:21:47.844Z,9.30
2019-04-26T08:24:21.846Z,9.00
2019-04-26T08:27:23.635Z,9.40
2019-04-26T08:30:03.433Z,9.30
2019-04-26T08:32:38.602Z,8.80
2019-04-26T08:35:21.751Z,8.53
2019-04-26T08:37:55.426Z,9.13
2019-04-26T08:40:31.083Z,9.17
2019-04-26T08:43:21.108Z,9.10
2019-04-26T08:46:18.274Z,8.90
2019-04-26T08:49:02.150Z,8.43
2019-04-26T08:51:33.540Z,8.07
2019-04-26T08:54:09.390Z,8.03
2019-04-26T08:56:44.307Z,7.70
2019-04-26T08:59:24.292Z,7.67
2019-04-26T09:02:16.510Z,9.33
2019-04-26T09:05:07.304Z,8.63
2019-04-26T09:07:40.728Z,8.43
2019-04-26T09:10:14.294Z,8.70
2019-04-26T09:12:47.564Z,7.50
2019-04-26T09:15:24.255Z,7.87
2019-04-26T09:17:54.777Z,8.80
2019-04-26T09:20:29.556Z,7.90
2019-04-26T09:23:39.806Z,8.10
2019-04-26T09:26:04.157Z,7.83
2019-04-26T09:28:56.511Z,7.27
2019-04-26T09:31:34.967Z,7.10
2019-04-26T09:34:10.418Z,7.20
2019-04-26T09:36:40.329Z,7.30
2019-04-26T09:39:35.153Z,7.63
2019-04-26T09:42:13.159Z,7.50
2019-04-26T09:45:00.327Z,7.37
2019-04-26T09:47:42.730Z,7.27
2019-04-26T09:50:22.523Z,7.43
2019-04-26T09:52:53.407Z,6.67
2019-04-26T09:55:34.775Z,7.80
2019-04-26T09:57:56.969Z,7.57
2019-04-26T10:00:29.794Z,8.43
2019-04-26T10:03:05.547Z,8.00
2019-04-26T10:05:34.618Z,8.13
2019-04-26T10:08:08.461Z,8.20
2019-04-26T10:10:37.690Z,7.10
2019-04-26T10:13:26.176Z,8.23
2019-04-26T10:16:07.940Z,7.50
2019-04-26T10:18:39.869Z,7.07
2019-04-26T10:21:10.779Z,6.63
2019-04-26T10:23:41.245Z,6.07
2019-04-26T10:26:12.068Z,6.07
2019-04-26T10:28:42.536Z,7.20
2019-04-26T10:31:13.632Z,7.40
2019-04-26T10:33:45.528Z,7.17
2019-04-26T10:36:16.169Z,6.63
2019-04-26T10:38:46.954Z,5.90
2019-04-26T10:41:17.604Z,6.27
2019-04-26T10:43:48.166Z,6.73
2019-04-26T10:46:18.786Z,5.53
2019-04-26T10:48:50.041Z,5.30
2019-04-26T10:51:30.627Z,5.60
2019-04-26T10:54:07.823Z,5.97
2019-04-26T10:56:42.807Z,5.60
2019-04-26T10:59:26.495Z,5.50
2019-04-26T11:01:56.989Z,5.40
2019-04-26T11:04:27.643Z,4.90
2019-04-26T11:07:01.852Z,7.17
2019-04-26T11:09:30.735Z,5.90
2019-04-26T11:12:01.219Z,5.50
2019-04-26T11:14:31.953Z,5.27
2019-04-26T11:17:03.405Z,5.33
2019-04-26T11:19:35.446Z,5.00
2019-04-26T11:22:06.347Z,5.60
2019-04-26T11:24:36.783Z,5.47
2019-04-26T11:27:09.727Z,5.47
2019-04-26T11:29:39.678Z,5.30
2019-04-26T11:32:10.588Z,5.07
2019-04-26T11:34:42.851Z,5.27
2019-04-26T11:37:17.545Z,5.33
2019-04-26T11:39:45.612Z,7.30
2019-04-26T11:42:16.417Z,6.70
2019-04-26T11:44:47.513Z,5.90
2019-04-26T11:47:18.516Z,5.23
2019-04-26T11:49:50.098Z,5.13
2019-04-26T11:52:21.044Z,4.63
2019-04-26T11:54:55.246Z,5.40
2019-04-26T11:57:23.684Z,4.73
2019-04-26T11:59:54.722Z,5.27
2019-04-26T12:02:25.162Z,4.90
2019-04-26T12:05:03.714Z,4.77
2019-04-26T12:07:41.530Z,6.93
2019-04-26T12:10:12.355Z,5.13
2019-04-26T12:12:46.484Z,4.27
2019-04-26T12:15:15.456Z,3.67
2019-04-26T12:17:58.076Z,4.30
2019-04-26T12:20:18.399Z,4.10
2019-04-26T12:22:50.029Z,4.27
2019-04-26T12:25:20.477Z,4.30
2019-04-26T12:27:53.447Z,4.43
2019-04-26T12:30:26.551Z,3.45
2019-04-26T12:32:56.247Z,3.83
2019-04-26T12:35:26.709Z,4.10
2019-04-26T12:37:57.323Z,3.70
2019-04-26T12:40:28.012Z,3.47
2019-04-26T12:42:58.918Z,4.87
2019-04-26T12:45:58.476Z,3.40
2019-04-26T12:48:29.157Z,3.60
2019-04-26T12:51:00.143Z,3.22
2019-04-26T12:53:32.653Z,3.70
2019-04-26T12:56:03.585Z,4.45
2019-04-26T12:58:33.983Z,4.03
2019-04-26T13:01:07.913Z,3.60
2019-04-26T13:03:38.961Z,3.75
2019-04-26T13:06:09.891Z,3.98
2019-04-26T13:08:40.456Z,3.60
2019-04-26T13:11:31.291Z,4.33
2019-04-26T13:14:16.065Z,3.58
2019-04-26T13:17:10.299Z,4.00
2019-04-26T13:19:40.748Z,4.47
2019-04-26T13:22:12.573Z,4.50
2019-04-26T13:24:43.234Z,4.78
2019-04-26T13:27:13.797Z,4.37
2019-04-26T13:29:44.242Z,4.12
2019-04-26T13:32:14.890Z,4.10
2019-04-26T13:34:45.380Z,4.70
2019-04-26T13:37:15.900Z,4.03
2019-04-26T13:39:46.556Z,3.37
2019-04-26T13:42:18.565Z,4.78
2019-04-26T13:44:57.741Z,3.80
2019-04-26T13:47:50.127Z,5.17
2019-04-26T13:50:36.937Z,4.37
2019-04-26T13:53:07.528Z,4.15
2019-04-26T13:55:38.056Z,4.30
2019-04-26T13:58:08.938Z,5.30
2019-04-26T14:00:39.796Z,6.33
2019-04-26T14:03:11.740Z,4.58
2019-04-26T14:05:43.245Z,4.47
2019-04-26T14:08:13.675Z,5.28
2019-04-26T14:10:45.548Z,5.22
2019-04-26T14:13:16.201Z,4.22
2019-04-26T14:15:50.363Z,4.20
2019-04-26T14:18:19.174Z,3.90
2019-04-26T14:20:49.786Z,3.80
2019-04-26T14:23:38.002Z,4.67
2019-04-26T14:26:11.359Z,3.98
2019-04-26T14:28:42.269Z,3.80
2019-04-26T14:31:16.465Z,4.40
2019-04-26T14:33:44.957Z,4.50
2019-04-26T14:36:17.925Z,4.60
2019-04-26T14:38:47.970Z,4.20
2019-04-26T14:41:22.574Z,4.05
2019-04-26T14:43:52.491Z,4.50
2019-04-26T14:46:23.682Z,4.65
2019-04-26T14:49:01.360Z,4.33
2019-04-26T14:51:26.794Z,4.15
2019-04-26T14:53:57.436Z,4.00
2019-04-26T14:56:29.464Z,4.92
2019-04-26T14:59:01.869Z,3.98
2019-04-26T15:02:02.682Z,4.60
2019-04-26T15:04:53.338Z,5.17
2019-04-26T15:07:23.930Z,5.87
2019-04-26T15:09:54.458Z,4.95
2019-04-26T15:12:24.954Z,4.12
2019-04-26T15:14:56.719Z,5.17
2019-04-26T15:17:27.582Z,4.85
2019-04-26T15:19:58.158Z,4.40
2019-04-26T15:22:28.655Z,4.15
2019-04-26T15:24:59.149Z,4.53
2019-04-26T15:27:32.237Z,4.15
2019-04-26T15:30:04.205Z,4.28
2019-04-26T15:32:35.345Z,4.85
2019-04-26T15:35:07.641Z,4.80
2019-04-26T15:37:38.426Z,5.47
2019-04-26T15:40:31.921Z,4.55
2019-04-26T15:43:16.636Z,5.28
2019-04-26T15:46:08.186Z,4.97
2019-04-26T15:48:50.392Z,5.08
2019-04-26T15:51:24.480Z,5.17
2019-04-26T15:53:54.469Z,6.28
2019-04-26T15:56:25.091Z,4.80
2019-04-26T15:58:55.553Z,4.00
2019-04-26T16:01:26.417Z,4.70
2019-04-26T16:03:57.043Z,4.50
2019-04-26T16:06:27.575Z,4.78
2019-04-26T16:08:58.096Z,4.53
2019-04-26T16:11:28.778Z,5.40
2019-04-26T16:13:59.349Z,5.35
2019-04-26T16:16:32.996Z,5.20
2019-04-26T16:19:02.967Z,5.75
2019-04-26T16:21:33.954Z,5.07
2019-04-26T16:24:04.927Z,5.10
2019-04-26T16:26:36.127Z,5.43
2019-04-26T16:29:24.172Z,5.60
2019-04-26T16:32:12.496Z,4.97
2019-04-26T16:34:47.566Z,3.03
2019-04-26T16:37:22.006Z,4.83
2019-04-26T16:39:49.677Z,5.20
2019-04-26T16:42:20.838Z,5.20
2019-04-26T16:44:53.153Z,5.50
2019-04-26T16:47:23.877Z,5.27
2019-04-26T16:49:54.820Z,4.77
2019-04-26T16:52:25.678Z,4.67
2019-04-26T16:55:02.314Z,5.23
2019-04-26T16:57:28.815Z,5.03
2019-04-26T17:00:00.279Z,5.67
2019-04-26T17:02:34.726Z,5.67
2019-04-26T17:05:16.814Z,5.00
2019-04-26T17:07:39.314Z,5.63
2019-04-26T17:10:09.853Z,6.20
2019-04-26T17:12:42.206Z,5.53
2019-04-26T17:15:13.287Z,5.73
2019-04-26T17:17:45.222Z,5.97
2019-04-26T17:20:17.794Z,5.80
2019-04-26T17:23:03.275Z,6.20
2019-04-26T17:26:04.142Z,5.80
2019-04-26T17:28:34.952Z,5.87
2019-04-26T17:31:05.690Z,6.00
2019-04-26T17:33:36.362Z,6.10
2019-04-26T17:36:06.945Z,5.97
2019-04-26T17:38:39.316Z,6.23
2019-04-26T17:41:12.664Z,5.73
2019-04-26T17:43:47.460Z,6.27
2019-04-26T17:46:18.167Z,5.80
2019-04-26T17:48:49.237Z,5.93
2019-04-26T17:51:22.838Z,5.53
2019-04-26T17:54:18.609Z,6.10
2019-04-26T17:56:26.094Z,5.90
2019-04-26T17:58:56.879Z,5.57
2019-04-26T18:01:43.862Z,5.80
2019-04-26T18:04:00.784Z,6.60
2019-04-26T18:06:31.769Z,6.47
2019-04-26T18:09:02.675Z,6.43
2019-04-26T18:11:35.042Z,6.43
2019-04-26T18:14:08.172Z,5.77
2019-04-26T18:16:42.714Z,5.70
2019-04-26T18:19:38.817Z,5.87
2019-04-26T18:22:24.274Z,7.23
2019-04-26T18:24:55.132Z,7.00
2019-04-26T18:27:25.816Z,6.53
2019-04-26T18:29:59.867Z,7.17
2019-04-26T18:32:29.024Z,6.63
2019-04-26T18:34:59.628Z,6.67
2019-04-26T18:37:30.488Z,6.40
2019-04-26T18:40:04.471Z,6.93
2019-04-26T18:42:37.586Z,8.30
2019-04-26T18:45:08.433Z,11.73
2019-04-26T18:47:41.433Z,14.97
2019-04-26T18:50:12.665Z,15.27
2019-04-26T18:52:56.501Z,13.53
2019-04-26T18:55:29.869Z,11.77
2019-04-26T18:58:03.640Z,10.63
2019-04-26T19:00:36.708Z,11.40
2019-04-26T19:03:07.528Z,13.17
2019-04-26T19:05:38.591Z,11.80
2019-04-26T19:08:10.100Z,13.57
2019-04-26T19:10:43.180Z,13.40
2019-04-26T19:13:30.946Z,13.53
2019-04-26T19:16:21.889Z,13.33
2019-04-26T19:18:58.035Z,13.47
2019-04-26T19:21:45.974Z,12.00
2019-04-26T19:24:19.777Z,14.63
2019-04-26T19:26:49.933Z,14.20
2019-04-26T19:29:27.409Z,13.70
2019-04-26T19:31:56.648Z,12.10
2019-04-26T19:34:26.079Z,12.10
2019-04-26T19:36:59.741Z,19.13
2019-04-26T19:39:35.041Z,22.67
2019-04-26T19:42:05.985Z,34.77
2019-04-26T19:44:36.045Z,37.13
2019-04-26T19:47:25.886Z,35.97
2019-04-26T19:50:17.951Z,38.07
2019-04-26T19:53:10.329Z,29.83
2019-04-26T19:56:01.572Z,32.10
2019-04-26T19:58:32.982Z,20.63
2019-04-26T20:01:04.386Z,19.67
2019-04-26T20:03:35.320Z,19.30
2019-04-26T20:06:06.058Z,18.83
2019-04-26T20:08:44.052Z,16.70
2019-04-26T20:11:12.878Z,16.20
2019-04-26T20:13:46.856Z,15.67
2019-04-26T20:16:15.701Z,17.13
2019-04-26T20:18:46.666Z,14.93
2019-04-26T20:21:17.649Z,13.77
2019-04-26T20:23:48.866Z,13.27
2019-04-26T20:26:19.376Z,13.10
2019-04-26T20:28:51.404Z,11.43
2019-04-26T20:31:47.483Z,12.10
2019-04-26T20:34:18.409Z,11.60
2019-04-26T20:36:49.084Z,11.73
2019-04-26T20:39:20.870Z,11.53
2019-04-26T20:42:00.980Z,11.17
2019-04-26T20:44:39.203Z,13.10
2019-04-26T20:47:00.638Z,13.43
2019-04-26T20:49:32.202Z,12.87
2019-04-26T20:52:03.001Z,12.93
2019-04-26T20:54:33.757Z,13.20
2019-04-26T20:57:04.301Z,13.63
2019-04-26T20:59:35.375Z,12.90
2019-04-26T21:02:08.056Z,14.10
2019-04-26T21:04:44.241Z,14.57
2019-04-26T21:07:14.216Z,14.90
2019-04-26T21:09:44.871Z,13.10
2019-04-26T21:12:18.351Z,13.70
2019-04-26T21:14:48.453Z,13.63
2019-04-26T21:17:19.477Z,13.93
2019-04-26T21:19:54.918Z,13.70
2019-04-26T21:22:28.391Z,14.13
2019-04-26T21:25:04.320Z,13.77
2019-04-26T21:28:02.395Z,12.80
2019-04-26T21:30:46.744Z,13.00
2019-04-26T21:33:28.795Z,13.30
2019-04-26T21:36:05.941Z,12.83
2019-04-26T21:38:47.814Z,12.17
2019-04-26T21:41:23.466Z,13.50
2019-04-26T21:43:53.820Z,12.43
2019-04-26T21:46:24.615Z,12.57
2019-04-26T21:48:55.776Z,12.50
2019-04-26T21:51:26.702Z,12.30
2019-04-26T21:53:57.704Z,12.13
2019-04-26T21:56:28.265Z,12.17
2019-04-26T21:58:59.024Z,12.57
2019-04-26T22:01:30.034Z,11.60
2019-04-26T22:04:03.018Z,12.20
2019-04-26T22:06:34.786Z,14.37
2019-04-26T22:09:16.935Z,14.50
2019-04-26T22:11:49.396Z,14.43
2019-04-26T22:14:24.239Z,13.87
2019-04-26T22:17:13.763Z,14.00
2019-04-26T22:20:06.662Z,14.73
2019-04-26T22:23:06.283Z,14.70
2019-04-26T22:25:39.083Z,14.73
2019-04-26T22:28:09.852Z,14.27
2019-04-26T22:30:41.408Z,14.73
2019-04-26T22:33:13.241Z,14.03
2019-04-26T22:35:44.029Z,14.43
2019-04-26T22:38:17.553Z,14.63
2019-04-26T22:40:48.521Z,15.10
2019-04-26T22:43:35.379Z,15.43
2019-04-26T22:46:29.720Z,14.50
2019-04-26T22:49:01.216Z,14.57
2019-04-26T22:51:33.660Z,14.20
2019-04-26T22:54:06.076Z,14.63
2019-04-26T22:56:37.246Z,14.27
2019-04-26T22:59:08.400Z,15.30
2019-04-26T23:01:43.637Z,15.97
2019-04-26T23:04:15.670Z,15.50
2019-04-26T23:06:46.872Z,15.50
2019-04-26T23:09:20.444Z,15.47
2019-04-26T23:11:55.356Z,15.57
2019-04-26T23:14:33.704Z,15.30
2019-04-26T23:17:37.278Z,15.40
2019-04-26T23:20:19.120Z,16.23
2019-04-26T23:22:49.780Z,16.27
2019-04-26T23:25:20.348Z,16.87
2019-04-26T23:27:56.064Z,16.30
2019-04-26T23:30:23.189Z,17.00
2019-04-26T23:32:53.755Z,15.93
2019-04-26T23:35:24.486Z,16.70
2019-04-26T23:37:56.640Z,17.00
2019-04-26T23:40:28.986Z,17.37
2019-04-26T23:42:59.754Z,16.93
2019-04-26T23:45:30.230Z,17.30
2019-04-26T23:48:01.252Z,17.43
2019-04-26T23:50:31.800Z,17.30
2019-04-26T23:53:03.021Z,18.03
2019-04-26T23:55:34.085Z,17.70
2019-04-26T23:58:10.241Z,17.60
